La Feria, Texas
Current Conditions -  °F | °C
As of 1:35 PM on Tuesday 21 Oct 2014 (Local Time) from KT65 Reporting Station
Overcast Overcast  
Wind Chill: 83°   Ceiling: 3200
Heat Index: 86°   Visibility: 10mi
Dew Point: 70°   Wind: 16mph
Humidity: 66%   Direction: 50°NE
Pressure: 29.94"   Gusts: 21mph
Location:  26.16°N, 97.82°W
Report Text: KT65 211835Z AUTO 05014G18KT 10SM SCT027 BKN032 OVC080 28/21 A2994 RMK AO2 T02810211
Loading
Personal Weather Stations






























Interactive Weather Map
Tropical Storm Tracking
New forecast layout! Learn more

10-Day Weather Forecast

Advertisements
Track Severe Weather on mobile